Time;durP1;ratioP1;P1;durP2;ratioP2;P2;SDS_P1;SDS_P2;PMS_P1;PMS_P2;Temp;Humidity;BMP_temperature;BMP_pressure;BME280_temperature;BME280_humidity;BME280_pressure;Samples;Min_cycle;Max_cycle;Signal;HPM_P1;HPM_P2
2023/06/05 00:01:49;;;;;;;4.80;2.60;;;15.10;99.90;;;;;;5011273;28;20457;-82
2023/06/05 00:04:17;;;;;;;3.93;1.97;;;15.10;99.90;;;;;;5008810;28;21002;-84
2023/06/05 00:06:45;;;;;;;2.90;2.63;;;15.10;99.90;;;;;;5007568;28;20455;-84
2023/06/05 00:09:13;;;;;;;5.63;2.10;;;15.00;99.90;;;;;;5000031;28;20449;-81
2023/06/05 00:11:40;;;;;;;3.33;2.50;;;15.00;99.90;;;;;;4998838;28;20452;-83
2023/06/05 00:14:08;;;;;;;2.93;2.70;;;15.00;99.90;;;;;;4998415;28;20472;-83
2023/06/05 00:16:35;;;;;;;3.73;1.90;;;15.00;99.90;;;;;;5000830;28;20824;-84
2023/06/05 00:19:02;;;;;;;2.30;2.10;;;15.20;99.90;;;;;;5003452;28;20488;-83
2023/06/05 00:21:31;;;;;;;2.50;2.30;;;15.20;99.90;;;;;;5002871;28;20455;-83
2023/06/05 00:23:57;;;;;;;3.57;2.10;;;15.30;99.90;;;;;;5002554;28;20475;-83
2023/06/05 00:26:24;;;;;;;1.93;1.80;;;15.30;99.90;;;;;;5004719;28;20458;-84
2023/06/05 00:28:51;;;;;;;2.00;1.83;;;15.40;99.90;;;;;;5005746;28;20472;-83
2023/06/05 00:31:21;;;;;;;2.50;2.30;;;15.40;99.90;;;;;;5005582;28;20472;-83
2023/06/05 00:33:48;;;;;;;2.17;2.00;;;15.40;99.90;;;;;;5004410;28;20991;-84
2023/06/05 00:36:15;;;;;;;2.30;2.10;;;15.30;99.90;;;;;;5003804;28;20463;-83
2023/06/05 00:38:43;;;;;;;1.83;1.73;;;15.10;99.90;;;;;;5005463;28;20527;-83
2023/06/05 00:41:10;;;;;;;3.67;2.03;;;15.10;99.90;;;;;;5003333;28;20532;-83
2023/06/05 00:43:37;;;;;;;2.80;2.07;;;15.10;99.90;;;;;;5003923;28;20473;-82
2023/06/05 00:46:06;;;;;;;4.20;2.27;;;15.00;99.90;;;;;;5000740;28;20517;-82
2023/06/05 00:48:34;;;;;;;2.17;2.07;;;15.00;99.90;;;;;;5000578;28;20453;-82
2023/06/05 00:51:01;;;;;;;6.97;1.80;;;15.00;99.90;;;;;;5002199;28;20459;-83
2023/06/05 00:53:30;;;;;;;3.00;2.00;;;15.30;99.90;;;;;;5002244;28;20448;-82
2023/06/05 00:55:59;;;;;;;2.60;2.40;;;15.00;99.90;;;;;;5001550;28;20460;-82
2023/06/05 00:58:27;;;;;;;1.73;1.63;;;14.90;99.90;;;;;;5001632;28;20484;-82
2023/06/05 01:00:55;;;;;;;2.20;1.97;;;14.80;99.90;;;;;;5014286;28;20453;-81
2023/06/05 01:03:22;;;;;;;2.90;1.43;;;14.90;99.90;;;;;;5013411;28;20464;-84
2023/06/05 01:05:49;;;;;;;4.63;2.00;;;14.80;99.90;;;;;;5011575;28;20832;-82
2023/06/05 01:08:20;;;;;;;5.70;1.70;;;14.80;99.90;;;;;;5014170;28;20488;-83
2023/06/05 01:10:47;;;;;;;3.40;2.13;;;14.80;99.90;;;;;;5015136;28;20436;-82
2023/06/05 01:13:22;;;;;;;2.30;1.90;;;14.90;99.90;;;;;;5013055;28;20453;-82
2023/06/05 01:15:52;;;;;;;4.13;1.93;;;14.80;99.90;;;;;;5012874;28;20496;-83
2023/06/05 01:18:22;;;;;;;7.50;1.90;;;14.70;99.90;;;;;;5004623;28;20496;-83
2023/06/05 01:20:48;;;;;;;2.63;2.17;;;14.80;99.90;;;;;;5002533;28;20462;-83
2023/06/05 01:23:17;;;;;;;5.23;1.57;;;14.80;99.90;;;;;;5002016;28;20556;-83
2023/06/05 01:25:44;;;;;;;2.23;2.03;;;14.90;99.90;;;;;;5002109;28;20974;-83
2023/06/05 01:28:17;;;;;;;2.00;1.90;;;14.90;99.90;;;;;;5004552;28;20444;-83
2023/06/05 01:30:52;;;;;;;3.00;1.40;;;14.80;99.90;;;;;;5003193;28;21097;-83
2023/06/05 01:33:24;;;;;;;1.93;1.70;;;14.60;99.90;;;;;;5002143;28;20460;-83
2023/06/05 01:35:53;;;;;;;2.67;1.57;;;14.90;99.90;;;;;;5004699;28;20441;-83
2023/06/05 01:38:22;;;;;;;4.53;2.40;;;14.90;99.90;;;;;;5001342;28;20516;-83
2023/06/05 01:40:50;;;;;;;2.00;1.80;;;14.90;99.90;;;;;;5010493;28;21006;-83
2023/06/05 01:43:19;;;;;;;1.57;1.40;;;14.80;99.90;;;;;;5018349;28;20545;-83
2023/06/05 01:45:48;;;;;;;5.70;1.97;;;14.80;99.90;;;;;;5017040;28;20457;-84
2023/06/05 01:48:15;;;;;;;2.90;2.50;;;14.70;99.90;;;;;;5013788;28;20462;-83
2023/06/05 01:50:42;;;;;;;4.40;2.10;;;14.70;99.90;;;;;;5001734;28;20424;-82
2023/06/05 01:53:11;;;;;;;2.23;2.03;;;14.70;99.90;;;;;;5000550;28;20452;-83
2023/06/05 01:55:41;;;;;;;1.97;1.80;;;14.60;99.90;;;;;;5000388;28;20457;-83
2023/06/05 01:58:08;;;;;;;2.30;1.83;;;14.70;99.90;;;;;;5000670;28;20479;-82
2023/06/05 02:00:36;;;;;;;2.60;2.40;;;14.70;99.90;;;;;;5001265;28;20449;-83
2023/06/05 02:03:04;;;;;;;3.20;2.10;;;14.70;99.90;;;;;;5002679;28;20457;-83
2023/06/05 02:05:31;;;;;;;2.50;2.00;;;14.40;99.90;;;;;;5004086;28;20473;-84
2023/06/05 02:08:04;;;;;;;1.53;1.43;;;14.60;99.90;;;;;;5002469;28;20460;-84
2023/06/05 02:10:31;;;;;;;2.67;1.93;;;14.60;99.90;;;;;;5001202;28;20859;-84
2023/06/05 02:12:59;;;;;;;2.43;2.20;;;14.50;99.90;;;;;;5005021;28;20457;-84
2023/06/05 02:15:28;;;;;;;1.77;1.67;;;14.40;99.90;;;;;;5003590;28;20547;-83
2023/06/05 02:17:56;;;;;;;2.40;2.20;;;14.40;99.90;;;;;;5001764;28;20485;-81
2023/06/05 02:20:25;;;;;;;3.13;2.33;;;14.30;99.90;;;;;;5000994;28;20467;-82
2023/06/05 02:22:54;;;;;;;5.73;2.10;;;14.20;99.90;;;;;;5001190;28;20955;-83
2023/06/05 02:25:25;;;;;;;1.73;1.63;;;14.30;99.90;;;;;;5000261;28;20536;-83
2023/06/05 02:27:52;;;;;;;2.90;1.83;;;14.20;99.90;;;;;;5003772;28;20472;-83
2023/06/05 02:30:21;;;;;;;2.47;2.30;;;14.10;99.90;;;;;;5000278;28;20805;-82
2023/06/05 02:32:48;;;;;;;3.50;2.00;;;14.20;99.90;;;;;;4999728;28;20824;-82
2023/06/05 02:35:15;;;;;;;3.27;1.97;;;14.20;99.90;;;;;;5000452;28;20480;-82
2023/06/05 02:37:44;;;;;;;3.23;2.07;;;14.10;99.90;;;;;;5002463;28;20449;-82
2023/06/05 02:40:12;;;;;;;5.30;2.10;;;14.00;99.90;;;;;;5006195;28;20448;-83
2023/06/05 02:42:40;;;;;;;2.63;2.43;;;14.00;99.90;;;;;;5003725;28;20516;-82
2023/06/05 02:45:08;;;;;;;2.47;2.20;;;13.90;99.90;;;;;;4999890;28;20473;-82
2023/06/05 02:47:37;;;;;;;2.07;1.97;;;13.80;99.90;;;;;;5001896;28;20863;-83
2023/06/05 02:50:05;;;;;;;2.40;2.20;;;13.90;99.90;;;;;;5003365;28;20453;-83
2023/06/05 02:52:34;;;;;;;2.20;2.10;;;13.90;99.90;;;;;;5003997;28;20456;-81
2023/06/05 02:55:02;;;;;;;3.33;1.87;;;14.00;99.90;;;;;;5016188;28;20453;-82
2023/06/05 02:57:28;;;;;;;2.47;1.73;;;13.70;99.90;;;;;;5010173;28;20507;-84
2023/06/05 02:59:55;;;;;;;2.47;1.97;;;13.80;99.90;;;;;;5002363;28;20488;-82
2023/06/05 03:02:23;;;;;;;2.47;1.50;;;13.80;99.90;;;;;;5002794;28;20480;-82
2023/06/05 03:04:53;;;;;;;1.67;1.57;;;13.70;99.90;;;;;;5005619;28;20508;-83
2023/06/05 03:07:20;;;;;;;2.30;2.10;;;13.70;99.90;;;;;;5009016;28;20445;-83
2023/06/05 03:09:47;;;;;;;2.47;1.87;;;13.60;99.90;;;;;;5002074;28;20515;-83
2023/06/05 03:12:14;;;;;;;3.03;1.90;;;13.60;99.90;;;;;;5000506;28;20448;-85
2023/06/05 03:14:40;;;;;;;2.23;2.03;;;13.60;99.90;;;;;;5004480;28;20499;-82
2023/06/05 03:17:07;;;;;;;4.63;1.80;;;13.60;99.90;;;;;;5014308;28;20448;-83
2023/06/05 03:19:34;;;;;;;2.40;2.10;;;13.60;99.90;;;;;;5014959;28;20487;-82
2023/06/05 03:22:03;;;;;;;4.80;2.30;;;13.70;99.90;;;;;;5009834;28;20452;-83
2023/06/05 03:24:30;;;;;;;2.30;2.10;;;13.70;99.90;;;;;;5009331;28;20468;-83
2023/06/05 03:26:57;;;;;;;3.77;2.30;;;13.60;99.90;;;;;;5010910;28;20449;-82
2023/06/05 03:29:24;;;;;;;3.40;2.00;;;13.60;99.90;;;;;;5014129;28;20451;-83
2023/06/05 03:31:51;;;;;;;3.07;1.93;;;13.60;99.90;;;;;;5012565;28;20476;-83
2023/06/05 03:34:18;;;;;;;3.60;2.10;;;13.60;99.90;;;;;;5009581;28;20540;-84
2023/06/05 03:36:45;;;;;;;2.60;2.40;;;13.40;99.90;;;;;;5007902;28;20459;-83
2023/06/05 03:39:14;;;;;;;3.97;2.13;;;13.60;99.90;;;;;;5008835;28;20477;-80
2023/06/05 03:41:41;;;;;;;1.90;1.80;;;13.60;99.90;;;;;;5006170;28;20448;-83
2023/06/05 03:44:08;;;;;;;2.53;2.33;;;13.60;99.90;;;;;;5004698;28;20469;-83
2023/06/05 03:46:35;;;;;;;4.23;1.90;;;13.60;99.90;;;;;;5005195;28;20507;-83
2023/06/05 03:49:08;;;;;;;1.93;1.83;;;13.70;99.90;;;;;;5004936;28;20452;-82
2023/06/05 03:51:35;;;;;;;2.43;2.07;;;13.70;99.90;;;;;;5005484;28;20786;-82
2023/06/05 03:54:03;;;;;;;3.07;2.70;;;13.80;99.90;;;;;;5006464;28;21021;-84
2023/06/05 03:56:34;;;;;;;1.83;1.63;;;13.80;99.90;;;;;;5005717;28;20453;-83
2023/06/05 03:59:08;;;;;;;10.03;8.17;;;13.70;99.90;;;;;;5002775;28;20539;-85
2023/06/05 04:01:37;;;;;;;2.77;2.27;;;13.80;99.90;;;;;;5004437;28;20507;-83
2023/06/05 04:04:04;;;;;;;3.27;2.47;;;13.90;99.90;;;;;;5003577;28;20567;-84
2023/06/05 04:06:33;;;;;;;1.70;1.60;;;13.90;99.90;;;;;;5004531;28;20867;-83
2023/06/05 04:09:01;;;;;;;2.40;2.20;;;14.00;99.90;;;;;;5006658;28;20448;-82
2023/06/05 04:11:28;;;;;;;3.87;2.80;;;14.00;99.90;;;;;;5006761;28;20803;-82
2023/06/05 04:13:56;;;;;;;4.83;1.93;;;14.00;99.90;;;;;;5009896;28;20485;-83
2023/06/05 04:16:23;;;;;;;6.20;2.17;;;14.00;99.90;;;;;;5003530;28;20521;-83
2023/06/05 04:18:49;;;;;;;2.90;2.03;;;14.00;99.90;;;;;;5003291;28;20497;-84
2023/06/05 04:21:16;;;;;;;3.20;2.73;;;14.00;99.90;;;;;;5003212;28;20480;-83
2023/06/05 04:23:43;;;;;;;2.83;2.37;;;14.10;99.90;;;;;;5009383;28;20551;-83
2023/06/05 04:26:10;;;;;;;2.83;2.50;;;14.00;99.90;;;;;;5011232;28;20527;-83
2023/06/05 04:28:37;;;;;;;3.53;2.43;;;14.00;99.90;;;;;;5011977;28;20495;-83
2023/06/05 04:31:05;;;;;;;1.87;1.77;;;14.00;99.90;;;;;;5003700;28;20512;-83
2023/06/05 04:33:32;;;;;;;2.60;2.00;;;14.10;99.90;;;;;;5000899;28;20483;-83
2023/06/05 04:35:59;;;;;;;2.20;2.00;;;14.10;99.90;;;;;;4999256;28;20433;-82
2023/06/05 04:38:27;;;;;;;3.83;2.10;;;14.20;99.90;;;;;;4999806;28;20466;-82
2023/06/05 04:40:54;;;;;;;4.47;2.63;;;14.20;99.90;;;;;;5001171;28;20871;-81
2023/06/05 04:43:22;;;;;;;2.10;2.00;;;14.00;99.90;;;;;;5003029;28;20448;-82
2023/06/05 04:45:49;;;;;;;4.40;2.07;;;14.10;99.90;;;;;;5001272;28;20484;-82
2023/06/05 04:48:17;;;;;;;2.30;2.10;;;14.20;99.90;;;;;;5001097;28;20452;-82
2023/06/05 04:50:44;;;;;;;2.50;2.30;;;14.20;99.90;;;;;;5000756;28;20834;-83
2023/06/05 04:53:11;;;;;;;4.27;2.50;;;14.30;99.90;;;;;;5006603;28;20437;-83
2023/06/05 04:55:38;;;;;;;2.43;2.17;;;14.20;99.90;;;;;;5003814;28;20453;-83
2023/06/05 04:58:06;;;;;;;2.67;2.07;;;14.30;99.90;;;;;;5003410;28;20512;-83
2023/06/05 05:00:33;;;;;;;3.63;2.50;;;14.40;99.90;;;;;;5008530;28;20484;-85
2023/06/05 05:03:02;;;;;;;5.40;2.23;;;14.40;99.90;;;;;;5012890;28;20484;-84
2023/06/05 05:05:30;;;;;;;5.17;1.90;;;14.50;99.90;;;;;;5010369;28;20508;-84
2023/06/05 05:07:57;;;;;;;2.17;2.00;;;14.50;99.90;;;;;;5014523;28;20488;-83
2023/06/05 05:10:25;;;;;;;3.03;2.30;;;14.60;99.90;;;;;;5013086;28;20480;-84
2023/06/05 05:12:51;;;;;;;3.60;2.50;;;14.60;99.90;;;;;;5007140;28;20449;-85
2023/06/05 05:15:18;;;;;;;3.40;2.40;;;14.70;99.90;;;;;;5007795;28;20870;-84
2023/06/05 05:17:45;;;;;;;4.10;2.30;;;14.70;99.90;;;;;;5007123;28;20487;-84
2023/06/05 05:20:12;;;;;;;2.50;2.30;;;14.80;99.90;;;;;;5007553;28;20489;-84
2023/06/05 05:22:40;;;;;;;2.47;2.10;;;14.70;99.90;;;;;;5006295;28;20445;-84
2023/06/05 05:25:08;;;;;;;12.20;2.33;;;14.80;99.90;;;;;;5006045;28;20469;-84
2023/06/05 05:27:35;;;;;;;5.57;3.10;;;14.80;99.90;;;;;;5007976;28;20473;-85
2023/06/05 05:30:02;;;;;;;3.70;2.30;;;14.90;99.90;;;;;;5010236;28;20529;-85
2023/06/05 05:32:29;;;;;;;4.10;2.37;;;15.00;99.90;;;;;;5008866;28;20541;-83
2023/06/05 05:34:56;;;;;;;7.77;2.43;;;15.10;99.90;;;;;;5006666;28;20477;-84
2023/06/05 05:37:23;;;;;;;5.77;2.57;;;15.20;99.90;;;;;;5007223;28;20449;-83
2023/06/05 05:39:51;;;;;;;3.07;2.63;;;15.20;99.90;;;;;;5009274;28;20491;-84
2023/06/05 05:42:18;;;;;;;3.13;2.63;;;15.30;99.90;;;;;;5008806;28;20487;-83
2023/06/05 05:44:45;;;;;;;5.83;2.93;;;15.40;99.90;;;;;;5008110;28;20508;-83
2023/06/05 05:47:12;;;;;;;7.00;2.60;;;15.50;99.90;;;;;;5005755;28;20453;-84
2023/06/05 05:49:39;;;;;;;2.87;2.60;;;15.60;99.90;;;;;;5005783;28;20430;-84
2023/06/05 05:52:06;;;;;;;5.27;3.10;;;15.70;99.90;;;;;;5006164;28;20553;-83
2023/06/05 05:54:32;;;;;;;3.10;2.30;;;15.80;99.90;;;;;;5007001;28;20477;-84
2023/06/05 05:57:01;;;;;;;3.20;3.00;;;15.80;99.90;;;;;;5014317;28;20958;-82
2023/06/05 05:59:28;;;;;;;13.07;2.80;;;15.90;99.90;;;;;;5013691;28;20571;-84
2023/06/05 06:01:58;;;;;;;5.27;3.37;;;15.90;99.90;;;;;;5006071;28;20452;-86
2023/06/05 06:04:26;;;;;;;7.33;3.10;;;;;;;;;;4999659;28;20472;-83
2023/06/05 06:06:56;;;;;;;5.20;3.30;;;16.00;99.90;;;;;;5004137;28;20457;-84
2023/06/05 06:09:23;;;;;;;5.10;2.50;;;16.10;99.90;;;;;;5006322;28;20472;-84
2023/06/05 06:11:49;;;;;;;4.13;2.90;;;16.20;99.90;;;;;;5006284;28;20457;-85
2023/06/05 06:14:17;;;;;;;3.13;2.83;;;16.30;99.90;;;;;;5008281;28;20556;-84
2023/06/05 06:16:45;;;;;;;3.30;2.20;;;16.40;99.90;;;;;;5009107;28;20491;-84
2023/06/05 06:19:14;;;;;;;3.73;2.70;;;16.40;99.90;;;;;;5009566;28;20994;-85
2023/06/05 06:21:41;;;;;;;5.23;2.67;;;16.50;99.90;;;;;;5008587;28;20452;-85
2023/06/05 06:24:08;;;;;;;5.03;3.27;;;16.60;99.90;;;;;;5009193;28;20465;-85
2023/06/05 06:26:37;;;;;;;5.30;2.90;;;16.70;99.90;;;;;;5008615;28;20566;-83
2023/06/05 06:29:04;;;;;;;6.10;3.40;;;16.90;99.90;;;;;;5009030;28;20444;-84
2023/06/05 06:31:32;;;;;;;9.73;3.13;;;16.90;99.90;;;;;;5008618;28;20456;-83
2023/06/05 06:33:59;;;;;;;4.90;3.00;;;17.00;99.90;;;;;;5007518;28;20569;-83
2023/06/05 06:36:27;;;;;;;4.03;3.10;;;17.00;99.90;;;;;;5009302;28;20449;-83
2023/06/05 06:38:53;;;;;;;2.67;2.47;;;17.20;99.90;;;;;;5008257;28;20476;-82
2023/06/05 06:41:21;;;;;;;5.83;2.60;;;17.30;99.90;;;;;;5007400;28;20456;-83
2023/06/05 06:43:48;;;;;;;4.13;2.67;;;17.50;99.90;;;;;;5002631;28;20473;-83
2023/06/05 06:46:20;;;;;;;3.80;2.67;;;17.70;99.90;;;;;;5029429;23;20607;-85
2023/06/05 06:48:52;;;;;;;4.27;3.00;;;17.80;99.90;;;;;;5000638;28;20835;-85
2023/06/05 06:51:23;;;;;;;6.07;2.83;;;17.80;99.90;;;;;;5000104;28;20429;-85
2023/06/05 06:53:52;;;;;;;5.13;2.60;;;;;;;;;;4996997;28;20437;-86
2023/06/05 06:56:19;;;;;;;4.57;3.00;;;17.90;99.90;;;;;;4997988;28;20476;-85
2023/06/05 06:58:47;;;;;;;7.23;4.10;;;;;;;;;;4999444;28;20459;-86
2023/06/05 07:01:16;;;;;;;4.47;2.97;;;17.90;99.90;;;;;;5001524;28;20567;-84
2023/06/05 07:03:45;;;;;;;3.97;3.00;;;18.00;99.90;;;;;;5011003;28;20442;-85
2023/06/05 07:06:14;;;;;;;5.73;3.10;;;18.40;99.90;;;;;;5012236;28;20480;-85
2023/06/05 07:08:42;;;;;;;6.00;3.40;;;;;;;;;;5004665;28;20480;-85
2023/06/05 07:11:11;;;;;;;4.67;3.47;;;18.60;99.90;;;;;;5001260;28;20449;-85
2023/06/05 07:13:38;;;;;;;9.37;6.63;;;18.40;99.90;;;;;;5000170;28;20445;-84
2023/06/05 07:16:05;;;;;;;15.10;11.57;;;;;;;;;;5000607;28;20453;-85
2023/06/05 07:18:32;;;;;;;3.33;2.70;;;;;;;;;;5000888;28;20515;-85
2023/06/05 07:20:59;;;;;;;5.43;2.43;;;18.80;99.90;;;;;;5002188;28;20491;-84
2023/06/05 07:23:28;;;;;;;4.80;2.47;;;18.90;99.90;;;;;;5004523;28;20453;-84
2023/06/05 07:25:56;;;;;;;3.40;3.07;;;19.00;99.90;;;;;;5000833;28;20892;-84
2023/06/05 07:28:25;;;;;;;3.17;2.70;;;19.10;99.90;;;;;;4999257;28;20456;-85
2023/06/05 07:30:52;;;;;;;4.13;2.80;;;19.10;99.90;;;;;;5000944;28;20448;-88
2023/06/05 07:33:20;;;;;;;8.07;2.90;;;19.20;99.90;;;;;;5001092;28;20881;-85
2023/06/05 07:35:48;;;;;;;3.97;2.40;;;19.30;99.90;;;;;;5000148;28;20939;-85
2023/06/05 07:38:15;;;;;;;5.00;2.60;;;19.40;99.90;;;;;;4999959;28;20464;-85
2023/06/05 07:40:43;;;;;;;3.30;2.30;;;19.40;99.90;;;;;;4999810;28;20596;-85
2023/06/05 07:43:13;;;;;;;3.53;2.30;;;19.50;99.90;;;;;;5004157;28;20525;-85
2023/06/05 07:45:41;;;;;;;2.70;2.43;;;19.30;99.90;;;;;;5001206;28;20552;-86
2023/06/05 07:48:08;;;;;;;3.80;2.70;;;19.60;99.90;;;;;;5001761;28;20840;-85
2023/06/05 07:50:34;;;;;;;3.33;2.40;;;19.70;99.90;;;;;;5001670;28;20425;-85
2023/06/05 07:53:02;;;;;;;6.03;2.67;;;;;;;;;;5001345;28;20512;-85
2023/06/05 07:55:28;;;;;;;2.37;2.17;;;19.90;99.90;;;;;;5001428;28;20441;-86
2023/06/05 07:57:57;;;;;;;3.97;3.43;;;20.00;99.90;;;;;;5002434;28;20493;-85
2023/06/05 08:00:24;;;;;;;5.30;2.70;;;20.10;99.90;;;;;;5001420;28;21057;-87
2023/06/05 08:02:51;;;;;;;4.77;2.33;;;20.10;99.90;;;;;;5001118;28;20559;-85
2023/06/05 08:05:19;;;;;;;3.40;1.97;;;20.20;99.90;;;;;;5001386;28;20484;-85
2023/06/05 08:07:46;;;;;;;2.80;2.60;;;20.20;99.90;;;;;;5011640;28;20465;-84
2023/06/05 08:10:13;;;;;;;3.80;2.40;;;20.30;99.90;;;;;;5021882;28;20464;-84
2023/06/05 08:12:41;;;;;;;3.10;2.67;;;20.70;99.90;;;;;;5021724;28;20463;-84
2023/06/05 08:15:10;;;;;;;4.70;2.40;;;20.50;99.90;;;;;;5009759;28;20445;-86
2023/06/05 08:17:37;;;;;;;3.33;2.40;;;20.50;99.90;;;;;;5005687;28;20497;-85
2023/06/05 08:20:06;;;;;;;5.00;2.33;;;20.80;99.90;;;;;;5004879;28;20480;-86
2023/06/05 08:22:34;;;;;;;6.00;2.47;;;20.60;99.90;;;;;;5004699;28;20453;-85
2023/06/05 08:25:03;;;;;;;4.50;2.40;;;20.70;99.90;;;;;;5004547;28;20453;-85
2023/06/05 08:27:30;;;;;;;2.53;2.00;;;20.70;99.90;;;;;;5011270;28;20472;-85
2023/06/05 08:29:56;;;;;;;7.07;2.40;;;20.70;99.90;;;;;;5007678;28;20493;-85
2023/06/05 08:32:25;;;;;;;2.90;2.20;;;20.70;99.90;;;;;;5008928;28;20471;-85
2023/06/05 08:34:51;;;;;;;2.57;2.30;;;20.80;99.90;;;;;;5011137;28;20459;-85
2023/06/05 08:37:18;;;;;;;7.87;2.47;;;20.90;99.90;;;;;;5012370;28;20476;-85
2023/06/05 08:39:46;;;;;;;2.80;2.57;;;21.00;99.90;;;;;;5008938;28;20516;-85
2023/06/05 08:42:18;;;;;;;2.13;1.80;;;21.00;99.90;;;;;;5007761;28;20504;-85
2023/06/05 08:44:47;;;;;;;4.43;1.97;;;21.00;99.90;;;;;;5005043;28;20487;-85
2023/06/05 08:47:17;;;;;;;4.77;2.30;;;21.10;99.90;;;;;;5005141;28;20548;-86
2023/06/05 08:49:46;;;;;;;7.83;2.80;;;21.20;99.90;;;;;;5006361;28;20433;-84
2023/06/05 08:52:14;;;;;;;5.80;2.33;;;21.20;99.90;;;;;;5007817;28;20449;-85
2023/06/05 08:54:42;;;;;;;2.70;2.50;;;21.20;99.90;;;;;;5014495;28;20567;-85
2023/06/05 08:57:10;;;;;;;2.10;1.80;;;21.20;99.90;;;;;;5008735;28;20488;-86
2023/06/05 08:59:38;;;;;;;4.43;1.70;;;21.30;99.90;;;;;;5005654;28;20452;-85
2023/06/05 09:02:05;;;;;;;2.20;1.83;;;21.30;99.90;;;;;;5007812;28;20471;-85
2023/06/05 09:04:32;;;;;;;2.40;2.13;;;;;;;;;;5006744;28;20517;-85
2023/06/05 09:07:00;;;;;;;8.50;2.10;;;21.50;99.90;;;;;;5007637;28;20464;-85
2023/06/05 09:09:27;;;;;;;2.53;2.10;;;21.80;99.90;;;;;;5007958;28;20464;-87
2023/06/05 09:12:05;;;;;;;2.97;2.20;;;21.50;99.90;;;;;;5005918;28;20457;-85
2023/06/05 09:14:32;;;;;;;2.73;2.13;;;21.50;99.90;;;;;;5006749;28;20827;-85
2023/06/05 09:17:00;;;;;;;4.03;2.27;;;21.60;99.90;;;;;;5005963;28;20556;-85
2023/06/05 09:19:37;;;;;;;5.67;2.30;;;21.60;99.90;;;;;;5005968;28;20444;-85
2023/06/05 09:22:07;;;;;;;7.07;1.77;;;21.70;99.90;;;;;;5009392;28;20835;-86
2023/06/05 09:24:34;;;;;;;3.60;2.30;;;21.70;99.90;;;;;;5009831;28;20440;-86
2023/06/05 09:27:03;;;;;;;2.23;2.03;;;21.70;99.90;;;;;;5005968;28;20511;-85
2023/06/05 09:29:32;;;;;;;2.20;2.00;;;21.70;99.90;;;;;;5008921;28;20457;-85
2023/06/05 09:32:01;;;;;;;3.50;1.80;;;21.80;99.90;;;;;;5005960;28;20479;-85
2023/06/05 09:34:29;;;;;;;2.60;1.50;;;21.80;99.90;;;;;;5007763;28;20449;-85
2023/06/05 09:36:57;;;;;;;3.07;1.50;;;22.10;99.90;;;;;;5010028;28;20523;-86
2023/06/05 09:39:26;;;;;;;2.13;1.53;;;21.90;99.90;;;;;;5013585;28;20473;-85
2023/06/05 09:41:56;;;;;;;3.40;1.97;;;22.00;99.90;;;;;;5006878;28;20491;-85
2023/06/05 09:44:25;;;;;;;2.03;1.87;;;22.00;99.90;;;;;;5005876;28;20445;-85
2023/06/05 09:46:57;;;;;;;2.10;1.90;;;22.10;99.90;;;;;;5004186;28;20520;-85
2023/06/05 09:49:27;;;;;;;3.07;2.30;;;22.00;99.90;;;;;;5004972;28;20904;-86
2023/06/05 09:51:55;;;;;;;5.53;3.03;;;22.10;99.90;;;;;;5005604;28;20475;-85
2023/06/05 09:54:23;;;;;;;12.60;2.63;;;22.10;99.90;;;;;;5006045;28;20884;-85
2023/06/05 09:56:51;;;;;;;5.13;1.93;;;22.10;99.90;;;;;;5004667;28;21017;-85
2023/06/05 09:59:24;;;;;;;2.13;1.90;;;22.00;99.90;;;;;;5007684;28;20448;-85
2023/06/05 10:01:52;;;;;;;2.23;1.50;;;22.20;99.90;;;;;;5007741;28;20468;-84
2023/06/05 10:04:23;;;;;;;2.23;2.03;;;22.30;99.90;;;;;;5014497;28;20440;-85
2023/06/05 10:06:53;;;;;;;7.30;2.43;;;22.40;99.90;;;;;;5019370;28;20484;-84
2023/06/05 10:09:20;;;;;;;2.00;1.83;;;22.30;99.90;;;;;;5015752;28;20533;-85
2023/06/05 10:11:52;;;;;;;2.30;1.37;;;22.70;99.90;;;;;;5016147;28;20455;-84
2023/06/05 10:14:21;;;;;;;7.33;1.83;;;22.40;99.90;;;;;;5019299;28;20412;-84
2023/06/05 10:16:51;;;;;;;6.23;2.00;;;22.40;99.90;;;;;;5019469;28;20491;-85
2023/06/05 10:19:19;;;;;;;2.10;1.90;;;22.50;99.90;;;;;;5010011;28;20468;-85
2023/06/05 10:21:48;;;;;;;1.60;1.50;;;22.10;99.90;;;;;;5006251;28;20488;-85
2023/06/05 10:24:20;;;;;;;4.20;2.00;;;22.40;99.90;;;;;;5015143;28;20448;-86
2023/06/05 10:27:42;;;;;;;2.13;2.03;;;22.60;99.90;;;;;;5017941;28;20477;-86
2023/06/05 10:30:56;;;;;;;8.00;2.90;;;22.70;99.90;;;;;;5017247;28;20437;-85
2023/06/05 10:33:35;;;;;;;3.10;1.97;;;22.80;99.90;;;;;;5003058;28;20437;-85
2023/06/05 10:36:11;;;;;;;3.73;2.40;;;22.90;99.90;;;;;;5001994;28;21010;-86
2023/06/05 10:38:40;;;;;;;2.00;1.90;;;22.90;99.90;;;;;;5001169;28;20429;-86
2023/06/05 10:41:08;;;;;;;5.50;1.90;;;22.50;99.90;;;;;;5001747;28;20486;-86
2023/06/05 10:43:46;;;;;;;9.70;2.40;;;22.80;99.90;;;;;;5003506;28;20449;-86
2023/06/05 10:46:31;;;;;;;2.90;2.47;;;22.90;99.90;;;;;;5009212;28;20506;-86
2023/06/05 10:49:09;;;;;;;2.70;2.50;;;22.90;99.90;;;;;;5006853;28;20527;-85
2023/06/05 10:51:42;;;;;;;3.40;2.70;;;23.00;99.90;;;;;;5002605;28;20471;-86
2023/06/05 10:54:10;;;;;;;3.03;1.97;;;23.50;99.90;;;;;;5004275;28;20976;-86
2023/06/05 10:57:10;;;;;;;5.57;2.13;;;23.00;99.90;;;;;;5003000;28;20998;-87
2023/06/05 10:59:42;;;;;;;2.80;1.97;;;23.10;99.90;;;;;;5002702;28;20440;-86
2023/06/05 11:02:26;;;;;;;4.60;2.10;;;23.00;99.90;;;;;;5003047;28;20474;-87
2023/06/05 11:05:11;;;;;;;2.87;1.80;;;22.80;99.90;;;;;;5004439;28;20451;-84
2023/06/05 11:07:39;;;;;;;4.73;2.10;;;23.10;99.90;;;;;;5004871;28;20469;-84
2023/06/05 11:10:09;;;;;;;5.77;2.43;;;23.10;99.90;;;;;;5004992;28;20524;-84
2023/06/05 11:12:57;;;;;;;2.80;1.90;;;23.10;99.90;;;;;;5011048;28;20444;-85
2023/06/05 11:15:43;;;;;;;3.17;1.93;;;23.20;99.90;;;;;;5008349;28;20593;-85
2023/06/05 11:18:30;;;;;;;3.10;2.43;;;23.30;99.90;;;;;;5012148;28;20457;-85
2023/06/05 11:20:57;;;;;;;7.17;2.37;;;23.70;99.90;;;;;;5011594;28;20875;-86
2023/06/05 11:23:27;;;;;;;2.33;1.70;;;;;;;;;;5011176;28;20432;-86
2023/06/05 11:25:57;;;;;;;2.33;2.10;;;23.60;99.90;;;;;;5011768;28;20475;-85
2023/06/05 11:28:45;;;;;;;4.80;2.20;;;24.00;99.90;;;;;;5012083;28;20795;-85
2023/06/05 11:31:13;;;;;;;2.37;1.70;;;23.50;99.90;;;;;;5010187;28;20464;-85
2023/06/05 11:33:40;;;;;;;2.23;2.00;;;23.80;99.90;;;;;;5010814;28;20465;-85
2023/06/05 11:36:08;;;;;;;2.40;2.13;;;23.30;99.90;;;;;;5010164;28;20515;-85
2023/06/05 11:38:36;;;;;;;2.83;2.13;;;23.60;99.90;;;;;;5010221;28;20453;-85
2023/06/05 11:41:08;;;;;;;4.00;2.77;;;23.60;99.90;;;;;;4999640;28;20487;-85
2023/06/05 11:43:42;;;;;;;2.90;2.60;;;23.70;99.90;;;;;;5005693;28;20436;-84
2023/06/05 11:46:09;;;;;;;3.00;2.53;;;23.70;99.90;;;;;;5009773;28;20547;-85
2023/06/05 11:48:44;;;;;;;1.97;1.87;;;23.70;99.90;;;;;;5011879;28;20444;-85
2023/06/05 11:51:11;;;;;;;4.33;2.40;;;23.80;99.90;;;;;;5013991;28;20471;-85
2023/06/05 11:53:47;;;;;;;3.50;3.00;;;23.70;99.90;;;;;;5013751;28;20452;-86
2023/06/05 11:56:16;;;;;;;3.17;2.43;;;23.70;99.90;;;;;;5021681;28;20477;-84
2023/06/05 11:58:44;;;;;;;3.93;2.40;;;;;;;;;;5022106;28;20448;-83
2023/06/05 12:01:14;;;;;;;3.60;2.63;;;24.10;99.90;;;;;;5012866;28;20507;-85
2023/06/05 12:03:43;;;;;;;8.20;2.60;;;23.90;99.90;;;;;;5010783;28;20444;-85
2023/06/05 12:06:12;;;;;;;5.53;2.60;;;23.90;99.90;;;;;;5011524;28;20478;-85
2023/06/05 12:08:38;;;;;;;4.77;3.40;;;23.90;99.90;;;;;;5012430;28;20462;-85
2023/06/05 12:11:20;;;;;;;2.73;2.53;;;23.90;99.90;;;;;;5012635;28;20522;-86
2023/06/05 12:13:48;;;;;;;3.13;2.87;;;24.00;99.90;;;;;;5014890;28;20475;-85
2023/06/05 12:16:15;;;;;;;2.40;2.20;;;24.00;99.90;;;;;;5013649;28;20488;-86
2023/06/05 12:18:44;;;;;;;6.17;3.10;;;24.10;99.90;;;;;;5013215;28;20452;-86
2023/06/05 12:21:22;;;;;;;9.87;3.60;;;24.10;99.90;;;;;;5012388;28;20440;-86
2023/06/05 12:23:49;;;;;;;4.87;2.70;;;24.20;99.90;;;;;;5010990;28;20532;-86
2023/06/05 12:26:16;;;;;;;3.70;3.20;;;24.20;99.90;;;;;;5011408;28;20466;-85
2023/06/05 12:28:44;;;;;;;5.33;2.60;;;;;;;;;;5011134;28;20448;-85
2023/06/05 12:31:11;;;;;;;3.23;2.60;;;22.80;99.90;;;;;;5011742;28;20539;-85
2023/06/05 12:33:49;;;;;;;2.63;2.40;;;24.30;99.90;;;;;;5011652;28;20797;-85
2023/06/05 12:36:17;;;;;;;4.37;3.13;;;24.30;99.90;;;;;;5011680;28;20475;-85
2023/06/05 12:38:45;;;;;;;3.30;2.70;;;24.30;99.90;;;;;;5012011;28;20521;-85
2023/06/05 12:41:12;;;;;;;6.87;4.23;;;24.00;99.90;;;;;;5011805;28;20479;-85
2023/06/05 12:43:39;;;;;;;3.30;2.57;;;24.40;99.90;;;;;;5012291;28;20444;-84
2023/06/05 12:46:08;;;;;;;5.30;2.30;;;24.40;99.90;;;;;;5035314;23;20484;-84
2023/06/05 12:48:38;;;;;;;3.33;2.67;;;24.30;99.90;;;;;;4995941;28;20961;-83
2023/06/05 12:51:07;;;;;;;3.20;2.27;;;24.40;99.90;;;;;;4998150;28;20546;-84
2023/06/05 12:53:34;;;;;;;3.70;2.40;;;24.40;99.90;;;;;;4996499;28;20442;-84
2023/06/05 12:56:01;;;;;;;2.40;2.20;;;24.40;99.90;;;;;;4998335;28;20445;-84
2023/06/05 12:58:27;;;;;;;4.50;2.43;;;24.40;99.90;;;;;;4998645;28;20444;-83
2023/06/05 13:00:54;;;;;;;4.47;3.20;;;24.40;99.90;;;;;;4997020;28;20445;-83